SUDU

Santa Bernardina International Airport

Durazno, Uruguay
SUDU 230500Z 2306/2406 26005KT 9999 SCT020 BKN080 TX27/2318Z TN19/2310Z PROB40 TEMPO 2202/2312 4000 TSRA BKN010 FEW040CB BKN060 PROB40 TEMPO 2306/2312 3000 BR BKN006 PROB30 TEMPO 2306/2312 0800 FG OVC003
Issued Valid From Valid To
Apr-23 @ 05:00 UTC
(4 hours ago)
Apr-23 @ 06:00 UTC
(3 hours ago)
Apr-24 @ 06:00 UTC
(in 21 hours)
Apr-23 @ 06:00 to Apr-24 @ 06:00
SUDU 230500Z 2306/2406 26005KT 9999 SCT020 BKN080 TX27/2318Z TN19/2310Z
Wind Visibility Clouds
260° at 5 knots 10,000+ meters
  • Scattered at 2,000' AGL
  • Broken at 8,000' AGL
Temporary  (Probability 40%) Apr-22 @ 02:00 to Apr-23 @ 12:00
PROB40 TEMPO 2202/2312 4000 TSRA BKN010 FEW040CB BKN060
Visibility Clouds Conditions
4,007 meters
  • Broken at 1,000' AGL
  • Few at 4,000' AGL
  • Broken at 6,000' AGL
  • Thunderstorm
  • Rain
Temporary  (Probability 40%) Apr-23 @ 06:00 to Apr-23 @ 12:00
PROB40 TEMPO 2306/2312 3000 BR BKN006
Visibility Clouds Conditions
2,993 meters
  • Broken at 600' AGL
  • Mist
Temporary  (Probability 30%) Apr-23 @ 06:00 to Apr-23 @ 12:00
PROB30 TEMPO 2306/2312 0800 FG OVC003
Visibility Clouds Conditions
805 meters
  • Overcast at 300' AGL
  • Fog
SUDU 230500Z 2306/2406 26005KT 9999 SCT020 BKN080 TX27/2318Z TN19/2310Z PROB40 TEMPO 2202/2312 4000 TSRA BKN010 FEW040CB BKN060 PROB40 TEMPO 2306/2312 3000 BR BKN006 PROB30 TEMPO 2306/2312 0800 FG OVC003
Issued Apr-23 @ 05:00 UTC
(4 hours ago)
Valid From Apr-23 @ 06:00 UTC
(3 hours ago)
Valid To Apr-24 @ 06:00 UTC
(in 21 hours)
Apr-23 @ 06:00 - Apr-24 @ 06:00
Wind Visibility
260° at 5 knots 10,000+ meters
Clouds
  • Scattered at 2,000' AGL
  • Broken at 8,000' AGL
Probability 40% Temporary Apr-22 @ 02:00 - Apr-23 @ 12:00
Clouds
  • Broken at 1,000' AGL
  • Few at 4,000' AGL
  • Broken at 6,000' AGL
Conditions
  • Thunderstorm
  • Rain
Probability 40% Temporary Apr-23 @ 06:00 - Apr-23 @ 12:00
Clouds
  • Broken at 600' AGL
Conditions
  • Mist
Probability 30% Temporary Apr-23 @ 06:00 - Apr-23 @ 12:00
Clouds
  • Overcast at 300' AGL
Conditions
  • Fog